createdAt,value
2019-06-20T00:00:50.237Z,100232.77
2019-06-20T00:03:25.901Z,100231.91
2019-06-20T00:05:59.281Z,100237.28
2019-06-20T00:08:32.655Z,100231.42
2019-06-20T00:11:08.003Z,100236.02
2019-06-20T00:13:42.433Z,100239.96
2019-06-20T00:16:16.893Z,100241.91
2019-06-20T00:18:50.426Z,100242.64
2019-06-20T00:21:27.030Z,100236.78
2019-06-20T00:24:02.692Z,100244.06
2019-06-20T00:26:38.581Z,100235.27
2019-06-20T00:29:14.688Z,100242.50
2019-06-20T00:31:48.169Z,100242.39
2019-06-20T00:34:21.905Z,100242.05
2019-06-20T00:36:55.357Z,100241.83
2019-06-20T00:39:28.789Z,100245.25
2019-06-20T00:42:02.244Z,100244.91
2019-06-20T00:44:35.586Z,100243.66
2019-06-20T00:47:10.003Z,100240.48
2019-06-20T00:49:45.974Z,100238.02
2019-06-20T00:52:21.641Z,100233.01
2019-06-20T00:54:56.736Z,100238.12
2019-06-20T00:57:30.283Z,100227.64
2019-06-20T01:00:06.936Z,100235.33
2019-06-20T01:02:44.322Z,100241.88
2019-06-20T01:05:17.799Z,100238.66
2019-06-20T01:07:58.518Z,100241.44
2019-06-20T01:10:29.663Z,100235.96
2019-06-20T01:13:04.611Z,100236.81
2019-06-20T01:15:41.088Z,100239.64
2019-06-20T01:18:14.355Z,100242.19
2019-06-20T01:20:50.167Z,100236.95
2019-06-20T01:23:28.430Z,100230.13
2019-06-20T01:26:08.902Z,100226.49
2019-06-20T01:28:44.923Z,100227.23
2019-06-20T01:31:18.437Z,100224.02
2019-06-20T01:33:51.752Z,100224.01
2019-06-20T01:36:25.138Z,100222.27
2019-06-20T01:38:58.355Z,100224.64
2019-06-20T01:41:31.696Z,100219.53
2019-06-20T01:44:05.113Z,100227.80
2019-06-20T01:46:38.418Z,100222.64
2019-06-20T01:49:12.098Z,100228.89
2019-06-20T01:51:45.490Z,100230.58
2019-06-20T01:54:18.777Z,100228.98
2019-06-20T01:56:52.146Z,100232.52
2019-06-20T01:59:25.464Z,100231.43
2019-06-20T02:01:58.886Z,100230.23
2019-06-20T02:04:32.238Z,100226.66
2019-06-20T02:07:06.641Z,100220.31
2019-06-20T02:09:40.072Z,100222.14
2019-06-20T02:12:13.435Z,100214.80
2019-06-20T02:14:46.818Z,100212.45
2019-06-20T02:17:20.765Z,100217.66
2019-06-20T02:19:54.333Z,100220.88
2019-06-20T02:22:27.711Z,100233.31
2019-06-20T02:25:00.981Z,100235.27
2019-06-20T02:27:34.201Z,100235.98
2019-06-20T02:30:07.868Z,100235.81
2019-06-20T02:32:43.350Z,100244.09
2019-06-20T02:35:19.939Z,100252.45
2019-06-20T02:37:55.910Z,100253.20
2019-06-20T02:40:31.538Z,100249.45
2019-06-20T02:43:06.352Z,100246.38
2019-06-20T02:45:40.459Z,100243.12
2019-06-20T02:48:16.587Z,100243.50
2019-06-20T02:50:53.581Z,100241.78
2019-06-20T02:53:28.206Z,100240.08
2019-06-20T02:56:02.132Z,100239.59
2019-06-20T02:58:39.988Z,100244.36
2019-06-20T03:01:16.830Z,100246.12
2019-06-20T03:03:54.301Z,100244.27
2019-06-20T03:06:41.566Z,100242.44
2019-06-20T03:09:07.519Z,100239.89
2019-06-20T03:11:43.156Z,100243.84
2019-06-20T03:14:18.620Z,100250.02
2019-06-20T03:16:58.512Z,100255.05
2019-06-20T03:19:32.021Z,100247.41
2019-06-20T03:22:06.062Z,100249.49
2019-06-20T03:24:42.598Z,100254.84
2019-06-20T03:27:17.642Z,100249.16
2019-06-20T03:29:52.714Z,100256.50
2019-06-20T03:32:29.181Z,100256.14
2019-06-20T03:35:02.810Z,100256.41
2019-06-20T03:37:40.482Z,100253.14
2019-06-20T03:40:16.642Z,100255.59
2019-06-20T03:42:50.533Z,100258.17
2019-06-20T03:45:33.264Z,100257.20
2019-06-20T03:48:07.992Z,100256.22
2019-06-20T03:50:44.694Z,100261.20
2019-06-20T03:53:21.383Z,100261.57
2019-06-20T03:55:56.595Z,100261.30
2019-06-20T03:58:35.958Z,100256.08
2019-06-20T04:01:09.592Z,100251.52
2019-06-20T04:03:44.003Z,100248.74
2019-06-20T04:06:36.014Z,100252.00
2019-06-20T04:09:02.127Z,100258.59
2019-06-20T04:11:38.679Z,100259.38
2019-06-20T04:14:13.779Z,100259.81
2019-06-20T04:16:49.487Z,100257.30
2019-06-20T04:19:24.350Z,100227.34
2019-06-20T04:22:04.447Z,100263.40
2019-06-20T04:24:41.873Z,100273.03
2019-06-20T04:27:16.423Z,100258.80
2019-06-20T04:29:55.192Z,100261.89
2019-06-20T04:32:30.702Z,100266.53
2019-06-20T04:35:06.003Z,100279.42
2019-06-20T04:37:39.616Z,100279.09
2019-06-20T04:40:14.768Z,100277.07
2019-06-20T04:42:50.959Z,100272.56
2019-06-20T04:45:58.896Z,100274.81
2019-06-20T04:48:33.260Z,100273.81
2019-06-20T04:51:10.456Z,100283.07
2019-06-20T04:53:43.793Z,100277.69
2019-06-20T04:56:17.229Z,100278.49
2019-06-20T04:58:50.664Z,100275.73
2019-06-20T05:01:24.004Z,100271.62
2019-06-20T05:03:58.205Z,100271.97
2019-06-20T05:06:31.799Z,100277.93
2019-06-20T05:09:06.988Z,100277.77
2019-06-20T05:11:40.419Z,100281.17
2019-06-20T05:14:13.717Z,100273.52
2019-06-20T05:16:51.561Z,100275.66
2019-06-20T05:19:25.247Z,100274.72
2019-06-20T05:21:58.656Z,100284.03
2019-06-20T05:24:32.138Z,100280.25
2019-06-20T05:27:05.658Z,100276.57
2019-06-20T05:29:40.109Z,100278.88
2019-06-20T05:32:21.982Z,100282.28
2019-06-20T05:35:08.615Z,100274.70
2019-06-20T05:37:42.242Z,100279.55
2019-06-20T05:40:16.626Z,100271.58
2019-06-20T05:42:50.770Z,100271.58
2019-06-20T05:45:24.215Z,100271.76
2019-06-20T05:47:57.885Z,100269.39
2019-06-20T05:50:33.621Z,100274.58
2019-06-20T05:53:08.564Z,100275.58
2019-06-20T05:55:42.036Z,100277.52
2019-06-20T05:58:19.684Z,100270.35
2019-06-20T06:00:53.729Z,100272.86
2019-06-20T06:03:29.083Z,100281.28
2019-06-20T06:06:05.707Z,100282.52
2019-06-20T06:08:42.766Z,100279.56
2019-06-20T06:11:16.958Z,100287.75
2019-06-20T06:13:53.539Z,100285.80
2019-06-20T06:16:31.465Z,100286.77
2019-06-20T06:19:06.923Z,100287.05
2019-06-20T06:21:41.985Z,100294.92
2019-06-20T06:24:21.180Z,100291.47
2019-06-20T06:26:53.733Z,100294.52
2019-06-20T06:29:33.147Z,100299.11
2019-06-20T06:32:09.096Z,100300.09
2019-06-20T06:34:45.710Z,100293.63
2019-06-20T06:37:19.158Z,100299.25
2019-06-20T06:39:55.050Z,100298.74
2019-06-20T06:42:29.699Z,100291.67
2019-06-20T06:45:03.141Z,100295.48
2019-06-20T06:47:46.981Z,100297.27
2019-06-20T06:50:26.220Z,100301.26
2019-06-20T06:53:01.310Z,100306.72
2019-06-20T06:55:35.602Z,100299.00
2019-06-20T06:58:09.035Z,100304.33
2019-06-20T07:00:45.386Z,100301.67
2019-06-20T07:03:19.737Z,100282.08
2019-06-20T07:05:57.427Z,100305.73
2019-06-20T07:08:32.280Z,100306.48
2019-06-20T07:11:06.345Z,100312.30
2019-06-20T07:13:44.411Z,100321.48
2019-06-20T07:16:18.509Z,100313.27
2019-06-20T07:19:01.108Z,100311.31
2019-06-20T07:21:34.761Z,100309.77
2019-06-20T07:24:09.806Z,100302.34
2019-06-20T07:26:44.795Z,100301.77
2019-06-20T07:29:18.358Z,100295.95
2019-06-20T07:31:53.700Z,100294.45
2019-06-20T07:34:40.768Z,100295.61
2019-06-20T07:37:10.840Z,100299.28
2019-06-20T07:39:53.441Z,100298.88
2019-06-20T07:42:33.303Z,100298.23
2019-06-20T07:45:11.801Z,100294.87
2019-06-20T07:47:55.078Z,100294.41
2019-06-20T08:01:35.348Z,100298.63
2019-06-20T08:04:09.064Z,100300.14
2019-06-20T08:06:43.455Z,100300.85
2019-06-20T08:09:16.828Z,100301.97
2019-06-20T08:11:50.393Z,100300.64
2019-06-20T08:14:23.935Z,100306.79
2019-06-20T08:16:58.397Z,100300.54
2019-06-20T08:19:32.514Z,100310.27
2019-06-20T08:22:09.947Z,100303.95
2019-06-20T08:24:44.548Z,100301.27
2019-06-20T08:27:19.546Z,100305.69
2019-06-20T08:29:52.829Z,100302.14
2019-06-20T08:32:26.209Z,100297.21
2019-06-20T08:35:00.545Z,100302.28
2019-06-20T08:37:34.219Z,100303.83
2019-06-20T08:40:08.486Z,100292.13
2019-06-20T08:42:42.477Z,100299.58
2019-06-20T08:45:17.656Z,100285.65
2019-06-20T08:47:50.979Z,100286.69
2019-06-20T08:50:24.707Z,100282.94
2019-06-20T08:52:58.504Z,100279.70
2019-06-20T08:55:32.917Z,100279.86
2019-06-20T08:58:06.369Z,100284.60
2019-06-20T09:00:41.324Z,100281.84
2019-06-20T09:03:14.759Z,100288.16
2019-06-20T09:05:48.025Z,100290.32
2019-06-20T09:08:21.630Z,100285.03
2019-06-20T09:10:55.705Z,100285.33
2019-06-20T09:13:29.036Z,100291.40
2019-06-20T09:16:03.055Z,100295.29
2019-06-20T09:18:36.444Z,100291.39
2019-06-20T09:21:09.612Z,100288.14
2019-06-20T09:23:43.023Z,100284.06
2019-06-20T09:26:16.371Z,100274.23
2019-06-20T09:28:51.019Z,100273.40
2019-06-20T09:31:24.505Z,100276.53
2019-06-20T09:34:03.710Z,100276.30
2019-06-20T09:36:35.539Z,100290.12
2019-06-20T09:39:09.844Z,100286.41
2019-06-20T09:41:43.129Z,100285.70
2019-06-20T09:44:16.615Z,100292.76
2019-06-20T09:46:51.187Z,100280.33
2019-06-20T09:49:25.033Z,100290.85
2019-06-20T09:51:58.705Z,100284.19
2019-06-20T09:54:32.488Z,100289.52
2019-06-20T09:57:06.007Z,100287.86
2019-06-20T09:59:40.797Z,100288.99
2019-06-20T10:02:14.205Z,100280.02
2019-06-20T10:04:49.158Z,100289.14
2019-06-20T10:07:22.544Z,100288.16
2019-06-20T10:09:56.961Z,100289.56
2019-06-20T10:12:30.327Z,100291.31
2019-06-20T10:15:03.605Z,100289.01
2019-06-20T10:17:36.978Z,100289.28
2019-06-20T10:20:11.020Z,100293.83
2019-06-20T10:22:45.879Z,100293.72
2019-06-20T10:25:23.285Z,100294.55
2019-06-20T10:27:57.906Z,100294.09
2019-06-20T10:30:31.770Z,100290.98
2019-06-20T10:33:05.642Z,100285.25
2019-06-20T10:35:39.052Z,100278.65
2019-06-20T10:38:12.387Z,100276.97
2019-06-20T10:40:46.359Z,100282.03
2019-06-20T10:43:20.113Z,100276.68
2019-06-20T10:45:53.552Z,100273.66
2019-06-20T10:48:26.959Z,100271.17
2019-06-20T10:51:19.037Z,100272.77
2019-06-20T10:53:53.414Z,100271.98
2019-06-20T10:56:26.836Z,100270.59
2019-06-20T10:59:00.347Z,100267.58
2019-06-20T11:01:35.055Z,100239.75
2019-06-20T11:04:10.550Z,100267.09
2019-06-20T11:06:47.612Z,100265.63
2019-06-20T11:09:24.057Z,100272.24
2019-06-20T11:11:58.325Z,100263.13
2019-06-20T11:14:34.270Z,100257.05
2019-06-20T11:17:07.898Z,100259.62
2019-06-20T11:19:41.575Z,100267.24
2019-06-20T11:22:15.260Z,100263.14
2019-06-20T11:24:50.168Z,100259.92
2019-06-20T11:27:24.396Z,100258.31
2019-06-20T11:29:57.911Z,100257.61
2019-06-20T11:32:31.348Z,100262.88
2019-06-20T11:35:05.656Z,100250.22
2019-06-20T11:37:39.679Z,100249.07
2019-06-20T11:40:16.010Z,100248.48
2019-06-20T11:42:49.712Z,100244.41
2019-06-20T11:45:24.576Z,100245.94
2019-06-20T11:47:59.233Z,100240.71
2019-06-20T11:50:35.011Z,100234.32
2019-06-20T11:53:09.082Z,100229.29
2019-06-20T11:55:42.917Z,100233.83
2019-06-20T11:58:16.641Z,100223.88
2019-06-20T12:01:03.041Z,100228.50
2019-06-20T12:03:26.198Z,100234.82
2019-06-20T12:05:59.677Z,100232.27
2019-06-20T12:08:34.547Z,100214.88
2019-06-20T12:11:08.226Z,100213.83
2019-06-20T12:13:42.102Z,100213.94
2019-06-20T12:16:15.508Z,100207.30
2019-06-20T12:18:49.443Z,100212.81
2019-06-20T12:21:22.930Z,100200.23
2019-06-20T12:23:56.469Z,100194.78
2019-06-20T12:26:29.972Z,100198.31
2019-06-20T12:29:03.402Z,100199.47
2019-06-20T12:31:36.881Z,100202.02
2019-06-20T12:34:10.582Z,100197.97
2019-06-20T12:36:44.426Z,100205.09
2019-06-20T12:39:17.730Z,100201.00
2019-06-20T12:41:51.035Z,100190.23
2019-06-20T12:44:26.259Z,100188.56
2019-06-20T12:46:59.729Z,100192.55
2019-06-20T12:49:33.580Z,100194.16
2019-06-20T12:52:06.926Z,100194.95
2019-06-20T12:54:43.232Z,100192.56
2019-06-20T12:57:16.821Z,100195.66
2019-06-20T12:59:50.061Z,100195.55
2019-06-20T13:02:23.411Z,100188.22
2019-06-20T13:04:57.021Z,100196.91
2019-06-20T13:07:30.779Z,100193.20
2019-06-20T13:10:04.118Z,100195.27
2019-06-20T13:12:40.707Z,100191.68
2019-06-20T13:15:13.935Z,100188.00
2019-06-20T13:17:48.889Z,100188.39
2019-06-20T13:20:23.777Z,100193.62
2019-06-20T13:22:58.052Z,100186.53
2019-06-20T13:25:35.013Z,100182.01
2019-06-20T13:28:10.998Z,100177.97
2019-06-20T13:30:48.611Z,100173.98
2019-06-20T13:33:19.892Z,100180.20
2019-06-20T13:35:55.659Z,100174.95
2019-06-20T13:38:29.876Z,100172.30
2019-06-20T13:41:06.147Z,100180.07
2019-06-20T13:43:39.387Z,100173.57
2019-06-20T13:46:12.617Z,100179.86
2019-06-20T13:48:47.492Z,100176.81
2019-06-20T13:51:20.770Z,100171.28
2019-06-20T13:53:53.886Z,100174.88
2019-06-20T13:56:27.068Z,100175.23
2019-06-20T13:59:01.365Z,100173.92
2019-06-20T14:01:34.524Z,100172.12
2019-06-20T14:04:07.876Z,100177.59
2019-06-20T14:06:42.096Z,100178.54
2019-06-20T14:09:16.685Z,100186.58
2019-06-20T14:11:51.440Z,100182.23
2019-06-20T14:14:24.627Z,100177.66
2019-06-20T14:16:58.634Z,100177.64
2019-06-20T14:19:31.785Z,100185.13
2019-06-20T14:22:06.220Z,100188.80
2019-06-20T14:24:39.277Z,100185.55
2019-06-20T14:27:12.359Z,100188.27
2019-06-20T14:29:46.528Z,100185.08
2019-06-20T14:32:22.352Z,100194.49
2019-06-20T14:34:54.428Z,100202.91
2019-06-20T14:37:27.534Z,100203.77
2019-06-20T14:40:00.760Z,100209.56
2019-06-20T14:42:34.021Z,100213.70
2019-06-20T14:45:07.628Z,100222.91
2019-06-20T14:47:40.791Z,100236.36
2019-06-20T14:50:15.531Z,100248.60
2019-06-20T14:52:50.012Z,100264.76
2019-06-20T14:55:29.870Z,100270.87
2019-06-20T14:58:03.337Z,100271.60
2019-06-20T15:00:36.593Z,100268.77
2019-06-20T15:03:09.825Z,100267.26
2019-06-20T15:05:44.775Z,100272.33
2019-06-20T15:08:18.419Z,100293.41
2019-06-20T15:10:51.925Z,100301.12
2019-06-20T15:13:26.199Z,100308.33
2019-06-20T15:15:59.438Z,100313.39
2019-06-20T15:18:32.877Z,100309.36
2019-06-20T15:21:06.195Z,100322.33
2019-06-20T15:23:39.369Z,100322.77
2019-06-20T15:26:12.642Z,100315.92
2019-06-20T15:28:47.650Z,100313.54
2019-06-20T15:31:21.048Z,100312.77
2019-06-20T15:33:55.146Z,100316.14
2019-06-20T15:36:28.765Z,100315.08
2019-06-20T15:39:01.998Z,100322.71
2019-06-20T15:41:36.823Z,100328.11
2019-06-20T15:44:10.149Z,100325.27
2019-06-20T15:46:43.372Z,100310.97
2019-06-20T15:49:16.714Z,100301.96
2019-06-20T15:51:49.952Z,100296.84
2019-06-20T15:54:24.553Z,100285.67
2019-06-20T15:56:57.830Z,100280.36
2019-06-20T15:59:31.060Z,100273.83
2019-06-20T16:02:04.258Z,100274.67
2019-06-20T16:04:37.564Z,100279.44
2019-06-20T16:07:11.811Z,100283.40
2019-06-20T16:09:45.070Z,100285.47
2019-06-20T16:12:18.296Z,100296.00
2019-06-20T16:14:51.573Z,100299.27
2019-06-20T16:17:24.769Z,100305.09
2019-06-20T16:19:57.992Z,100303.86
2019-06-20T16:22:31.118Z,100306.20
2019-06-20T16:25:04.456Z,100299.98
2019-06-20T16:27:37.741Z,100300.46
2019-06-20T16:30:11.921Z,100301.11
2019-06-20T16:32:45.225Z,100310.33
2019-06-20T16:35:19.797Z,100314.77
2019-06-20T16:37:53.022Z,100318.23
2019-06-20T16:40:44.204Z,100325.16
2019-06-20T16:43:17.525Z,100323.55
2019-06-20T16:45:50.610Z,100331.94
2019-06-20T16:48:23.807Z,100341.59
2019-06-20T16:50:56.998Z,100338.20
2019-06-20T16:53:30.230Z,100343.67
2019-06-20T16:56:03.426Z,100343.11
2019-06-20T16:58:36.518Z,100345.86
2019-06-20T17:01:09.768Z,100347.20
2019-06-20T17:03:42.918Z,100353.77
2019-06-20T17:06:16.080Z,100362.07
2019-06-20T17:08:50.285Z,100362.48
2019-06-20T17:11:23.535Z,100366.95
2019-06-20T17:13:56.818Z,100364.02
2019-06-20T17:16:29.977Z,100365.44
2019-06-20T17:19:03.122Z,100360.95
2019-06-20T17:21:37.386Z,100368.21
2019-06-20T17:24:10.730Z,100371.55
2019-06-20T17:26:43.890Z,100366.99
2019-06-20T17:29:17.115Z,100371.89
2019-06-20T17:31:50.350Z,100375.67
2019-06-20T17:34:23.489Z,100379.52
2019-06-20T17:36:56.816Z,100381.00
2019-06-20T17:39:29.925Z,100382.92
2019-06-20T17:42:03.159Z,100384.37
2019-06-20T17:44:36.242Z,100394.88
2019-06-20T17:47:09.347Z,100390.41
2019-06-20T17:49:42.591Z,100379.95
2019-06-20T17:52:15.708Z,100381.80
2019-06-20T17:54:48.881Z,100383.02
2019-06-20T17:57:22.047Z,100381.73
2019-06-20T17:59:55.336Z,100381.23
2019-06-20T18:02:28.541Z,100388.53
2019-06-20T18:05:03.397Z,100388.70
2019-06-20T18:07:36.572Z,100391.91
2019-06-20T18:10:10.490Z,100394.67
2019-06-20T18:12:43.626Z,100395.66
2019-06-20T18:15:17.357Z,100394.89
2019-06-20T18:17:50.671Z,100395.73
2019-06-20T18:20:25.119Z,100401.84
2019-06-20T18:22:58.402Z,100404.05
2019-06-20T18:25:31.887Z,100399.52
2019-06-20T18:28:05.189Z,100395.23
2019-06-20T18:30:44.527Z,100396.58
2019-06-20T18:33:17.750Z,100394.76
2019-06-20T18:35:51.023Z,100395.66
2019-06-20T18:38:24.217Z,100395.32
2019-06-20T18:40:58.461Z,100401.36
2019-06-20T18:43:31.732Z,100404.48
2019-06-20T18:46:04.839Z,100405.76
2019-06-20T18:48:37.983Z,100406.48
2019-06-20T18:51:11.047Z,100411.39
2019-06-20T18:53:44.180Z,100409.36
2019-06-20T18:56:17.336Z,100416.73
2019-06-20T18:58:50.498Z,100415.17
2019-06-20T19:01:23.773Z,100419.14
2019-06-20T19:03:57.035Z,100427.45
2019-06-20T19:06:35.879Z,100435.38
2019-06-20T19:09:08.591Z,100437.35
2019-06-20T19:11:42.824Z,100444.52
2019-06-20T19:14:16.011Z,100443.36
2019-06-20T19:16:49.286Z,100451.52
2019-06-20T19:19:22.490Z,100453.78
2019-06-20T19:21:55.616Z,100465.14
2019-06-20T19:24:28.837Z,100474.86
2019-06-20T19:27:01.998Z,100472.76
2019-06-20T19:29:35.201Z,100477.83
2019-06-20T19:32:09.354Z,100474.75
2019-06-20T19:34:43.039Z,100470.86
2019-06-20T19:37:16.737Z,100481.26
2019-06-20T19:39:52.957Z,100484.35
2019-06-20T19:42:28.117Z,100484.02
2019-06-20T19:45:04.371Z,100491.30
2019-06-20T19:47:37.610Z,100501.70
2019-06-20T19:50:11.613Z,100500.75
2019-06-20T19:52:44.923Z,100514.73
2019-06-20T19:55:18.865Z,100518.77
2019-06-20T19:57:51.950Z,100511.34
2019-06-20T20:00:25.451Z,100514.42
2019-06-20T20:02:59.796Z,100518.84
2019-06-20T20:05:33.053Z,100520.34
2019-06-20T20:08:06.657Z,100525.88
2019-06-20T20:10:46.109Z,100531.16
2019-06-20T20:13:19.609Z,100532.66
2019-06-20T20:15:52.793Z,100530.66
2019-06-20T20:18:28.656Z,100518.44
2019-06-20T20:21:03.192Z,100517.47
2019-06-20T20:23:36.601Z,100517.73
2019-06-20T20:26:09.785Z,100515.66
2019-06-20T20:28:43.629Z,100515.89
2019-06-20T20:31:16.963Z,100516.25
2019-06-20T20:34:19.931Z,100520.41
2019-06-20T20:36:54.848Z,100520.17
2019-06-20T20:39:29.602Z,100520.28
2019-06-20T20:42:03.028Z,100523.23
2019-06-20T20:44:37.467Z,100524.80
2019-06-20T20:47:10.956Z,100528.36
2019-06-20T20:49:44.470Z,100535.42
2019-06-20T20:52:18.882Z,100534.95
2019-06-20T20:54:54.767Z,100536.66
2019-06-20T20:57:33.011Z,100528.33
2019-06-20T21:00:09.028Z,100522.91
2019-06-20T21:02:43.142Z,100518.38
2019-06-20T21:05:16.473Z,100513.12
2019-06-20T21:07:49.925Z,100513.75
2019-06-20T21:10:24.874Z,100511.91
2019-06-20T21:12:58.076Z,100507.25
2019-06-20T21:15:31.568Z,100512.13
2019-06-20T21:18:04.920Z,100514.11
2019-06-20T21:20:38.104Z,100517.01
2019-06-20T21:23:11.596Z,100520.94
2019-06-20T21:25:44.843Z,100526.66
2019-06-20T21:28:18.118Z,100530.05
2019-06-20T21:30:51.384Z,100533.20
2019-06-20T21:33:25.215Z,100533.80
2019-06-20T21:36:08.431Z,100535.53
2019-06-20T21:38:33.710Z,100543.20
2019-06-20T21:41:07.102Z,100547.92
2019-06-20T21:43:40.488Z,100541.10
2019-06-20T21:46:13.694Z,100541.10
2019-06-20T21:48:46.955Z,100539.38
2019-06-20T21:51:20.273Z,100550.36
2019-06-20T21:53:53.456Z,100550.45
2019-06-20T21:56:26.600Z,100554.89
2019-06-20T21:58:59.713Z,100554.08
2019-06-20T22:01:33.157Z,100554.08
2019-06-20T22:04:07.227Z,100551.47
2019-06-20T22:06:40.462Z,100557.77
2019-06-20T22:09:14.379Z,100560.78
2019-06-20T22:11:47.973Z,100551.23
2019-06-20T22:14:22.443Z,100546.82
2019-06-20T22:16:55.595Z,100557.35
2019-06-20T22:19:28.914Z,100561.73
2019-06-20T22:22:02.102Z,100563.21
2019-06-20T22:24:35.400Z,100556.34
2019-06-20T22:27:08.618Z,100556.34
2019-06-20T22:29:41.876Z,100556.34
2019-06-20T22:32:15.181Z,100550.66
2019-06-20T22:34:48.529Z,100548.65
2019-06-20T22:37:21.726Z,100548.65
2019-06-20T22:39:54.990Z,100557.28
2019-06-20T22:42:28.400Z,100558.20
2019-06-20T22:45:01.741Z,100552.91
2019-06-20T22:47:36.066Z,100572.53
2019-06-20T22:50:10.184Z,100572.53
2019-06-20T22:52:43.546Z,100577.98
2019-06-20T22:55:17.032Z,100583.61
2019-06-20T22:57:50.349Z,100574.95
2019-06-20T23:00:23.733Z,100574.95
2019-06-20T23:02:57.275Z,100577.13
2019-06-20T23:05:30.744Z,100578.38
2019-06-20T23:08:04.337Z,100576.61
2019-06-20T23:10:37.865Z,100569.53
2019-06-20T23:13:11.288Z,100573.44
2019-06-20T23:15:44.743Z,100577.11
2019-06-20T23:18:17.982Z,100571.89
2019-06-20T23:21:03.999Z,100570.73
2019-06-20T23:23:26.126Z,100568.69
2019-06-20T23:26:01.233Z,100574.44
2019-06-20T23:28:34.501Z,100576.06
2019-06-20T23:31:07.756Z,100580.56
2019-06-20T23:33:40.852Z,100569.58
2019-06-20T23:36:14.361Z,100566.41
2019-06-20T23:38:47.527Z,100565.02
2019-06-20T23:41:21.077Z,100571.98
2019-06-20T23:43:54.395Z,100573.32
2019-06-20T23:46:27.659Z,100573.93
2019-06-20T23:49:00.998Z,100578.38
2019-06-20T23:51:36.263Z,100579.41
2019-06-20T23:54:09.373Z,100579.47
2019-06-20T23:56:42.814Z,100582.69
2019-06-20T23:59:16.043Z,100583.09
